sensor_id;sensor_type;location;lat;lon;timestamp;temperature;humidity
31979;DHT22;18502;43.574;1.276;2022-12-18T00:01:44;5.30;99.90
31979;DHT22;18502;43.574;1.276;2022-12-18T00:04:24;5.30;99.90
31979;DHT22;18502;43.574;1.276;2022-12-18T00:06:49;5.20;99.90
31979;DHT22;18502;43.574;1.276;2022-12-18T00:09:16;5.30;99.90
31979;DHT22;18502;43.574;1.276;2022-12-18T00:11:42;5.20;99.90
31979;DHT22;18502;43.574;1.276;2022-12-18T00:14:09;5.30;99.90
31979;DHT22;18502;43.574;1.276;2022-12-18T00:16:36;5.30;99.90
31979;DHT22;18502;43.574;1.276;2022-12-18T00:19:03;5.30;99.90
31979;DHT22;18502;43.574;1.276;2022-12-18T00:21:30;5.30;99.90
31979;DHT22;18502;43.574;1.276;2022-12-18T00:23:56;5.40;99.90
31979;DHT22;18502;43.574;1.276;2022-12-18T00:26:28;5.40;99.90
31979;DHT22;18502;43.574;1.276;2022-12-18T00:28:55;5.40;99.90
31979;DHT22;18502;43.574;1.276;2022-12-18T00:31:24;5.40;99.90
31979;DHT22;18502;43.574;1.276;2022-12-18T00:33:50;5.40;99.90
31979;DHT22;18502;43.574;1.276;2022-12-18T00:36:19;5.50;99.90
31979;DHT22;18502;43.574;1.276;2022-12-18T00:38:46;5.50;99.90
31979;DHT22;18502;43.574;1.276;2022-12-18T00:41:13;5.50;99.90
31979;DHT22;18502;43.574;1.276;2022-12-18T00:43:40;5.50;99.90
31979;DHT22;18502;43.574;1.276;2022-12-18T00:46:05;5.50;99.90
31979;DHT22;18502;43.574;1.276;2022-12-18T00:48:32;5.50;99.90
31979;DHT22;18502;43.574;1.276;2022-12-18T00:50:57;5.50;99.90
31979;DHT22;18502;43.574;1.276;2022-12-18T00:53:23;5.60;99.90
31979;DHT22;18502;43.574;1.276;2022-12-18T00:55:49;5.60;99.90
31979;DHT22;18502;43.574;1.276;2022-12-18T00:58:16;5.50;99.90
31979;DHT22;18502;43.574;1.276;2022-12-18T01:00:43;5.50;99.90
31979;DHT22;18502;43.574;1.276;2022-12-18T01:03:09;5.60;99.90
31979;DHT22;18502;43.574;1.276;2022-12-18T01:05:40;5.60;99.90
31979;DHT22;18502;43.574;1.276;2022-12-18T01:08:06;5.60;99.90
31979;DHT22;18502;43.574;1.276;2022-12-18T01:10:31;5.60;99.90
31979;DHT22;18502;43.574;1.276;2022-12-18T01:12:57;5.60;99.90
31979;DHT22;18502;43.574;1.276;2022-12-18T01:15:23;5.60;99.90
31979;DHT22;18502;43.574;1.276;2022-12-18T01:17:48;5.60;99.90
31979;DHT22;18502;43.574;1.276;2022-12-18T01:20:14;5.60;99.90
31979;DHT22;18502;43.574;1.276;2022-12-18T01:22:40;5.70;99.90
31979;DHT22;18502;43.574;1.276;2022-12-18T01:25:06;5.60;99.90
31979;DHT22;18502;43.574;1.276;2022-12-18T01:27:33;5.60;99.90
31979;DHT22;18502;43.574;1.276;2022-12-18T01:29:59;5.60;99.90
31979;DHT22;18502;43.574;1.276;2022-12-18T01:32:25;5.60;99.90
31979;DHT22;18502;43.574;1.276;2022-12-18T01:34:50;5.60;99.90
31979;DHT22;18502;43.574;1.276;2022-12-18T01:37:16;5.60;99.90
31979;DHT22;18502;43.574;1.276;2022-12-18T01:39:42;5.60;99.90
31979;DHT22;18502;43.574;1.276;2022-12-18T01:42:15;5.60;99.90
31979;DHT22;18502;43.574;1.276;2022-12-18T01:47:42;5.60;99.90
31979;DHT22;18502;43.574;1.276;2022-12-18T01:50:10;5.60;99.90
31979;DHT22;18502;43.574;1.276;2022-12-18T01:52:46;5.60;99.90
31979;DHT22;18502;43.574;1.276;2022-12-18T01:55:15;5.50;99.90
31979;DHT22;18502;43.574;1.276;2022-12-18T01:57:42;5.50;99.90
31979;DHT22;18502;43.574;1.276;2022-12-18T02:00:14;5.60;99.90
31979;DHT22;18502;43.574;1.276;2022-12-18T02:02:41;5.60;99.90
31979;DHT22;18502;43.574;1.276;2022-12-18T02:05:09;5.50;99.90
31979;DHT22;18502;43.574;1.276;2022-12-18T02:10:45;5.40;99.90
31979;DHT22;18502;43.574;1.276;2022-12-18T02:18:44;5.20;99.90
31979;DHT22;18502;43.574;1.276;2022-12-18T02:21:51;5.20;99.90
31979;DHT22;18502;43.574;1.276;2022-12-18T02:24:56;5.10;99.90
31979;DHT22;18502;43.574;1.276;2022-12-18T02:27:25;5.00;99.90
31979;DHT22;18502;43.574;1.276;2022-12-18T02:29:53;5.00;99.90
31979;DHT22;18502;43.574;1.276;2022-12-18T02:32:25;4.90;99.90
31979;DHT22;18502;43.574;1.276;2022-12-18T02:34:55;4.90;99.90
31979;DHT22;18502;43.574;1.276;2022-12-18T02:37:23;4.80;99.90
31979;DHT22;18502;43.574;1.276;2022-12-18T02:39:49;4.70;99.90
31979;DHT22;18502;43.574;1.276;2022-12-18T02:42:17;4.80;99.90
31979;DHT22;18502;43.574;1.276;2022-12-18T02:44:49;4.70;99.90
31979;DHT22;18502;43.574;1.276;2022-12-18T02:47:17;4.60;99.90
31979;DHT22;18502;43.574;1.276;2022-12-18T02:52:49;4.50;99.90
31979;DHT22;18502;43.574;1.276;2022-12-18T02:58:07;4.30;99.90
31979;DHT22;18502;43.574;1.276;2022-12-18T03:03:19;4.20;99.90
31979;DHT22;18502;43.574;1.276;2022-12-18T03:06:04;4.10;99.90
31979;DHT22;18502;43.574;1.276;2022-12-18T03:08:41;4.10;99.90
31979;DHT22;18502;43.574;1.276;2022-12-18T03:11:09;4.10;99.90
31979;DHT22;18502;43.574;1.276;2022-12-18T03:13:40;4.10;99.90
31979;DHT22;18502;43.574;1.276;2022-12-18T03:16:11;4.10;99.90
31979;DHT22;18502;43.574;1.276;2022-12-18T03:18:38;4.00;99.90
31979;DHT22;18502;43.574;1.276;2022-12-18T03:21:08;4.00;99.90
31979;DHT22;18502;43.574;1.276;2022-12-18T03:23:44;3.90;99.90
31979;DHT22;18502;43.574;1.276;2022-12-18T03:26:13;3.80;99.90
31979;DHT22;18502;43.574;1.276;2022-12-18T03:28:48;3.80;99.90
31979;DHT22;18502;43.574;1.276;2022-12-18T03:31:15;3.80;99.90
31979;DHT22;18502;43.574;1.276;2022-12-18T03:33:53;3.80;99.90
31979;DHT22;18502;43.574;1.276;2022-12-18T03:36:19;3.80;99.90
31979;DHT22;18502;43.574;1.276;2022-12-18T03:38:45;3.80;99.90
31979;DHT22;18502;43.574;1.276;2022-12-18T03:44:00;3.80;99.90
31979;DHT22;18502;43.574;1.276;2022-12-18T03:49:38;3.70;99.90
31979;DHT22;18502;43.574;1.276;2022-12-18T03:52:06;3.70;99.90
31979;DHT22;18502;43.574;1.276;2022-12-18T03:54:35;3.60;99.90
31979;DHT22;18502;43.574;1.276;2022-12-18T03:57:13;3.60;99.90
31979;DHT22;18502;43.574;1.276;2022-12-18T03:59:41;3.70;99.90
31979;DHT22;18502;43.574;1.276;2022-12-18T04:02:09;3.60;99.90
31979;DHT22;18502;43.574;1.276;2022-12-18T04:04:37;3.70;99.90
31979;DHT22;18502;43.574;1.276;2022-12-18T04:07:04;3.80;99.90
31979;DHT22;18502;43.574;1.276;2022-12-18T04:09:32;3.80;99.90
31979;DHT22;18502;43.574;1.276;2022-12-18T04:11:59;3.90;99.90
31979;DHT22;18502;43.574;1.276;2022-12-18T04:14:24;3.80;99.90
31979;DHT22;18502;43.574;1.276;2022-12-18T04:16:50;3.80;99.90
31979;DHT22;18502;43.574;1.276;2022-12-18T04:19:16;3.80;99.90
31979;DHT22;18502;43.574;1.276;2022-12-18T04:21:41;3.80;99.90
31979;DHT22;18502;43.574;1.276;2022-12-18T04:24:07;3.80;99.90
31979;DHT22;18502;43.574;1.276;2022-12-18T04:26:33;3.80;99.90
31979;DHT22;18502;43.574;1.276;2022-12-18T04:28:59;3.80;99.90
31979;DHT22;18502;43.574;1.276;2022-12-18T04:31:25;3.70;99.90
31979;DHT22;18502;43.574;1.276;2022-12-18T04:33:51;3.70;99.90
31979;DHT22;18502;43.574;1.276;2022-12-18T04:36:16;3.70;99.90
31979;DHT22;18502;43.574;1.276;2022-12-18T04:38:42;3.60;99.90
31979;DHT22;18502;43.574;1.276;2022-12-18T04:41:08;3.60;99.90
31979;DHT22;18502;43.574;1.276;2022-12-18T04:43:33;3.60;99.90
31979;DHT22;18502;43.574;1.276;2022-12-18T04:46:07;3.50;99.90
31979;DHT22;18502;43.574;1.276;2022-12-18T04:48:34;3.50;99.90
31979;DHT22;18502;43.574;1.276;2022-12-18T04:51:00;3.50;99.90
31979;DHT22;18502;43.574;1.276;2022-12-18T04:53:25;3.50;99.90
31979;DHT22;18502;43.574;1.276;2022-12-18T04:56:07;3.50;99.90
31979;DHT22;18502;43.574;1.276;2022-12-18T04:58:34;3.40;99.90
31979;DHT22;18502;43.574;1.276;2022-12-18T05:01:01;3.50;99.90
31979;DHT22;18502;43.574;1.276;2022-12-18T05:03:26;3.40;99.90
31979;DHT22;18502;43.574;1.276;2022-12-18T05:05:52;3.50;99.90
31979;DHT22;18502;43.574;1.276;2022-12-18T05:08:18;3.40;99.90
31979;DHT22;18502;43.574;1.276;2022-12-18T05:10:44;3.40;99.90
31979;DHT22;18502;43.574;1.276;2022-12-18T05:13:10;3.40;99.90
31979;DHT22;18502;43.574;1.276;2022-12-18T05:15:36;3.40;99.90
31979;DHT22;18502;43.574;1.276;2022-12-18T05:18:02;3.50;99.90
31979;DHT22;18502;43.574;1.276;2022-12-18T05:20:29;3.50;99.90
31979;DHT22;18502;43.574;1.276;2022-12-18T05:22:55;3.50;99.90
31979;DHT22;18502;43.574;1.276;2022-12-18T05:25:22;3.40;99.90
31979;DHT22;18502;43.574;1.276;2022-12-18T05:27:48;3.40;99.90
31979;DHT22;18502;43.574;1.276;2022-12-18T05:30:14;3.40;99.90
31979;DHT22;18502;43.574;1.276;2022-12-18T05:32:41;3.30;99.90
31979;DHT22;18502;43.574;1.276;2022-12-18T05:35:09;3.30;99.90
31979;DHT22;18502;43.574;1.276;2022-12-18T05:37:35;3.30;99.90
31979;DHT22;18502;43.574;1.276;2022-12-18T05:40:02;3.30;99.90
31979;DHT22;18502;43.574;1.276;2022-12-18T05:42:27;3.20;99.90
31979;DHT22;18502;43.574;1.276;2022-12-18T05:44:53;3.20;99.90
31979;DHT22;18502;43.574;1.276;2022-12-18T05:47:19;3.20;99.90
31979;DHT22;18502;43.574;1.276;2022-12-18T05:49:44;3.20;99.90
31979;DHT22;18502;43.574;1.276;2022-12-18T05:52:10;3.20;99.90
31979;DHT22;18502;43.574;1.276;2022-12-18T05:54:36;3.30;99.90
31979;DHT22;18502;43.574;1.276;2022-12-18T05:57:02;3.30;99.90
31979;DHT22;18502;43.574;1.276;2022-12-18T05:59:27;3.20;99.90
31979;DHT22;18502;43.574;1.276;2022-12-18T06:01:53;3.20;99.90
31979;DHT22;18502;43.574;1.276;2022-12-18T06:04:19;3.20;99.90
31979;DHT22;18502;43.574;1.276;2022-12-18T06:06:45;3.10;99.90
31979;DHT22;18502;43.574;1.276;2022-12-18T06:09:10;3.00;99.90
31979;DHT22;18502;43.574;1.276;2022-12-18T06:11:38;3.00;99.90
31979;DHT22;18502;43.574;1.276;2022-12-18T06:14:05;2.90;99.90
31979;DHT22;18502;43.574;1.276;2022-12-18T06:16:31;2.90;99.90
31979;DHT22;18502;43.574;1.276;2022-12-18T06:18:58;3.00;99.90
31979;DHT22;18502;43.574;1.276;2022-12-18T06:21:24;2.90;99.90
31979;DHT22;18502;43.574;1.276;2022-12-18T06:23:50;2.80;99.90
31979;DHT22;18502;43.574;1.276;2022-12-18T06:26:16;2.90;99.90
31979;DHT22;18502;43.574;1.276;2022-12-18T06:28:42;2.90;99.90
31979;DHT22;18502;43.574;1.276;2022-12-18T06:31:08;2.90;99.90
31979;DHT22;18502;43.574;1.276;2022-12-18T06:33:34;2.90;99.90
31979;DHT22;18502;43.574;1.276;2022-12-18T06:36:06;2.80;99.90
31979;DHT22;18502;43.574;1.276;2022-12-18T06:38:33;2.80;99.90
31979;DHT22;18502;43.574;1.276;2022-12-18T06:41:00;2.90;99.90
31979;DHT22;18502;43.574;1.276;2022-12-18T06:43:25;2.90;99.90
31979;DHT22;18502;43.574;1.276;2022-12-18T06:45:57;2.80;99.90
31979;DHT22;18502;43.574;1.276;2022-12-18T06:48:22;2.90;99.90
31979;DHT22;18502;43.574;1.276;2022-12-18T06:50:48;3.00;99.90
31979;DHT22;18502;43.574;1.276;2022-12-18T06:53:14;2.90;99.90
31979;DHT22;18502;43.574;1.276;2022-12-18T06:55:39;2.80;99.90
31979;DHT22;18502;43.574;1.276;2022-12-18T06:58:05;2.90;99.90
31979;DHT22;18502;43.574;1.276;2022-12-18T07:00:31;2.90;99.90
31979;DHT22;18502;43.574;1.276;2022-12-18T07:02:57;2.80;99.90
31979;DHT22;18502;43.574;1.276;2022-12-18T07:05:23;2.90;99.90
31979;DHT22;18502;43.574;1.276;2022-12-18T07:07:48;2.90;99.90
31979;DHT22;18502;43.574;1.276;2022-12-18T07:10:14;2.90;99.90
31979;DHT22;18502;43.574;1.276;2022-12-18T07:12:40;2.80;99.90
31979;DHT22;18502;43.574;1.276;2022-12-18T07:15:07;2.90;99.90
31979;DHT22;18502;43.574;1.276;2022-12-18T07:17:32;2.90;99.90
31979;DHT22;18502;43.574;1.276;2022-12-18T07:19:58;2.90;99.90
31979;DHT22;18502;43.574;1.276;2022-12-18T07:22:25;2.90;99.90
31979;DHT22;18502;43.574;1.276;2022-12-18T07:24:51;2.80;99.90
31979;DHT22;18502;43.574;1.276;2022-12-18T07:27:17;2.70;99.90
31979;DHT22;18502;43.574;1.276;2022-12-18T07:29:42;2.80;99.90
31979;DHT22;18502;43.574;1.276;2022-12-18T07:32:08;2.80;99.90
31979;DHT22;18502;43.574;1.276;2022-12-18T07:34:34;2.80;99.90
31979;DHT22;18502;43.574;1.276;2022-12-18T07:37:00;2.80;99.90
31979;DHT22;18502;43.574;1.276;2022-12-18T07:39:25;2.80;99.90
31979;DHT22;18502;43.574;1.276;2022-12-18T07:41:51;2.90;99.90
31979;DHT22;18502;43.574;1.276;2022-12-18T07:44:35;2.90;99.90
31979;DHT22;18502;43.574;1.276;2022-12-18T07:47:01;3.00;99.90
31979;DHT22;18502;43.574;1.276;2022-12-18T07:49:28;3.00;99.90
31979;DHT22;18502;43.574;1.276;2022-12-18T07:51:57;3.10;99.90
31979;DHT22;18502;43.574;1.276;2022-12-18T07:54:23;3.20;99.90
31979;DHT22;18502;43.574;1.276;2022-12-18T07:56:50;3.30;99.90
31979;DHT22;18502;43.574;1.276;2022-12-18T07:59:16;3.40;99.90
31979;DHT22;18502;43.574;1.276;2022-12-18T08:01:42;3.50;99.90
31979;DHT22;18502;43.574;1.276;2022-12-18T08:04:08;4.30;99.90
31979;DHT22;18502;43.574;1.276;2022-12-18T08:06:33;5.20;99.90
31979;DHT22;18502;43.574;1.276;2022-12-18T08:08:59;5.80;99.90
31979;DHT22;18502;43.574;1.276;2022-12-18T08:11:26;6.30;99.90
31979;DHT22;18502;43.574;1.276;2022-12-18T08:13:53;6.80;99.90
31979;DHT22;18502;43.574;1.276;2022-12-18T08:16:19;7.30;99.90
31979;DHT22;18502;43.574;1.276;2022-12-18T08:18:45;7.70;99.90
31979;DHT22;18502;43.574;1.276;2022-12-18T08:21:18;8.00;99.90
31979;DHT22;18502;43.574;1.276;2022-12-18T08:23:46;8.30;99.80
31979;DHT22;18502;43.574;1.276;2022-12-18T08:26:12;8.10;99.90
31979;DHT22;18502;43.574;1.276;2022-12-18T08:28:38;8.10;99.90
31979;DHT22;18502;43.574;1.276;2022-12-18T08:31:05;8.00;99.90
31979;DHT22;18502;43.574;1.276;2022-12-18T08:33:31;6.70;99.90
31979;DHT22;18502;43.574;1.276;2022-12-18T08:35:59;6.50;99.90
31979;DHT22;18502;43.574;1.276;2022-12-18T08:38:24;7.20;99.90
31979;DHT22;18502;43.574;1.276;2022-12-18T08:41:01;8.30;99.90
31979;DHT22;18502;43.574;1.276;2022-12-18T08:43:27;9.30;98.30
31979;DHT22;18502;43.574;1.276;2022-12-18T08:46:11;9.60;95.70
31979;DHT22;18502;43.574;1.276;2022-12-18T08:48:37;10.70;93.60
31979;DHT22;18502;43.574;1.276;2022-12-18T08:51:03;10.70;92.60
31979;DHT22;18502;43.574;1.276;2022-12-18T08:53:29;9.80;94.90
31979;DHT22;18502;43.574;1.276;2022-12-18T08:55:56;9.80;95.00
31979;DHT22;18502;43.574;1.276;2022-12-18T08:58:22;10.10;94.90
31979;DHT22;18502;43.574;1.276;2022-12-18T09:00:48;10.10;94.80
31979;DHT22;18502;43.574;1.276;2022-12-18T09:03:18;10.10;95.20
31979;DHT22;18502;43.574;1.276;2022-12-18T09:05:45;11.00;93.90
31979;DHT22;18502;43.574;1.276;2022-12-18T09:08:11;11.30;93.80
31979;DHT22;18502;43.574;1.276;2022-12-18T09:10:44;11.00;94.50
31979;DHT22;18502;43.574;1.276;2022-12-18T09:13:11;11.10;94.10
31979;DHT22;18502;43.574;1.276;2022-12-18T09:15:41;11.30;94.40
31979;DHT22;18502;43.574;1.276;2022-12-18T09:18:07;11.50;93.80
31979;DHT22;18502;43.574;1.276;2022-12-18T09:20:35;11.40;94.20
31979;DHT22;18502;43.574;1.276;2022-12-18T09:23:02;11.80;93.40
31979;DHT22;18502;43.574;1.276;2022-12-18T09:25:29;11.70;93.60
31979;DHT22;18502;43.574;1.276;2022-12-18T09:27:59;11.50;94.30
31979;DHT22;18502;43.574;1.276;2022-12-18T09:30:24;11.90;93.70
31979;DHT22;18502;43.574;1.276;2022-12-18T09:32:50;13.00;91.50
31979;DHT22;18502;43.574;1.276;2022-12-18T09:35:16;13.20;90.60
31979;DHT22;18502;43.574;1.276;2022-12-18T09:37:41;12.40;91.30
31979;DHT22;18502;43.574;1.276;2022-12-18T09:40:14;12.50;91.60
31979;DHT22;18502;43.574;1.276;2022-12-18T09:42:45;13.20;90.20
31979;DHT22;18502;43.574;1.276;2022-12-18T09:45:15;13.80;89.40
31979;DHT22;18502;43.574;1.276;2022-12-18T09:47:43;13.90;88.30
31979;DHT22;18502;43.574;1.276;2022-12-18T09:50:35;13.20;90.10
31979;DHT22;18502;43.574;1.276;2022-12-18T09:53:19;13.30;88.70
31979;DHT22;18502;43.574;1.276;2022-12-18T09:55:47;12.80;90.50
31979;DHT22;18502;43.574;1.276;2022-12-18T09:58:18;13.80;87.50
31979;DHT22;18502;43.574;1.276;2022-12-18T10:00:46;13.20;88.40
31979;DHT22;18502;43.574;1.276;2022-12-18T10:03:13;12.90;88.90
31979;DHT22;18502;43.574;1.276;2022-12-18T10:28:13;13.60;85.00
31979;DHT22;18502;43.574;1.276;2022-12-18T10:30:40;13.60;85.80
31979;DHT22;18502;43.574;1.276;2022-12-18T10:33:11;14.00;83.70
31979;DHT22;18502;43.574;1.276;2022-12-18T10:35:40;15.30;79.30
31979;DHT22;18502;43.574;1.276;2022-12-18T10:38:29;15.30;78.40
31979;DHT22;18502;43.574;1.276;2022-12-18T10:41:05;14.60;79.20
31979;DHT22;18502;43.574;1.276;2022-12-18T10:43:39;15.90;76.20
31979;DHT22;18502;43.574;1.276;2022-12-18T10:48:56;14.90;77.50
31979;DHT22;18502;43.574;1.276;2022-12-18T10:51:34;15.00;76.10
31979;DHT22;18502;43.574;1.276;2022-12-18T10:56:29;14.80;77.30
31979;DHT22;18502;43.574;1.276;2022-12-18T10:59:04;14.90;75.60
31979;DHT22;18502;43.574;1.276;2022-12-18T11:01:49;15.00;75.60
31979;DHT22;18502;43.574;1.276;2022-12-18T11:04:21;15.60;74.80
31979;DHT22;18502;43.574;1.276;2022-12-18T11:06:57;14.60;74.70
31979;DHT22;18502;43.574;1.276;2022-12-18T11:11:56;15.80;73.90
31979;DHT22;18502;43.574;1.276;2022-12-18T11:14:31;15.50;73.60
31979;DHT22;18502;43.574;1.276;2022-12-18T11:16:59;16.80;71.00
31979;DHT22;18502;43.574;1.276;2022-12-18T11:19:35;16.50;68.30
31979;DHT22;18502;43.574;1.276;2022-12-18T11:25:17;16.00;68.50
31979;DHT22;18502;43.574;1.276;2022-12-18T11:27:56;16.70;67.10
31979;DHT22;18502;43.574;1.276;2022-12-18T11:33:20;17.20;63.50
31979;DHT22;18502;43.574;1.276;2022-12-18T11:35:56;17.20;64.00
31979;DHT22;18502;43.574;1.276;2022-12-18T11:46:32;14.90;67.80
31979;DHT22;18502;43.574;1.276;2022-12-18T11:54:18;15.10;68.40
31979;DHT22;18502;43.574;1.276;2022-12-18T11:56:49;15.90;65.90
31979;DHT22;18502;43.574;1.276;2022-12-18T12:01:48;16.90;63.10
31979;DHT22;18502;43.574;1.276;2022-12-18T12:10:37;17.10;62.20
31979;DHT22;18502;43.574;1.276;2022-12-18T12:26:57;18.20;56.60
31979;DHT22;18502;43.574;1.276;2022-12-18T12:29:28;16.70;59.40
31979;DHT22;18502;43.574;1.276;2022-12-18T12:34:41;15.90;62.40
31979;DHT22;18502;43.574;1.276;2022-12-18T12:40:00;16.00;62.30
31979;DHT22;18502;43.574;1.276;2022-12-18T12:42:33;16.00;63.10
31979;DHT22;18502;43.574;1.276;2022-12-18T12:45:28;18.00;60.00
31979;DHT22;18502;43.574;1.276;2022-12-18T12:47:58;17.60;60.70
31979;DHT22;18502;43.574;1.276;2022-12-18T12:50:27;17.80;59.20
31979;DHT22;18502;43.574;1.276;2022-12-18T12:52:55;16.90;60.50
31979;DHT22;18502;43.574;1.276;2022-12-18T12:55:24;16.10;64.80
31979;DHT22;18502;43.574;1.276;2022-12-18T12:58:00;15.80;66.50
31979;DHT22;18502;43.574;1.276;2022-12-18T13:00:36;14.50;68.30
31979;DHT22;18502;43.574;1.276;2022-12-18T13:05:40;14.10;73.80
31979;DHT22;18502;43.574;1.276;2022-12-18T13:08:12;13.40;75.60
31979;DHT22;18502;43.574;1.276;2022-12-18T13:10:47;12.20;79.80
31979;DHT22;18502;43.574;1.276;2022-12-18T13:13:14;12.50;81.10
31979;DHT22;18502;43.574;1.276;2022-12-18T13:15:49;12.30;82.90
31979;DHT22;18502;43.574;1.276;2022-12-18T13:18:28;12.90;82.50
31979;DHT22;18502;43.574;1.276;2022-12-18T13:25:52;12.20;85.00
31979;DHT22;18502;43.574;1.276;2022-12-18T13:31:00;12.10;86.70
31979;DHT22;18502;43.574;1.276;2022-12-18T13:38:37;11.70;89.00
31979;DHT22;18502;43.574;1.276;2022-12-18T13:43:49;11.90;89.10
31979;DHT22;18502;43.574;1.276;2022-12-18T13:48:55;14.90;79.90
31979;DHT22;18502;43.574;1.276;2022-12-18T13:51:23;14.10;81.00
31979;DHT22;18502;43.574;1.276;2022-12-18T13:53:56;13.40;82.40
31979;DHT22;18502;43.574;1.276;2022-12-18T13:56:33;14.40;80.20
31979;DHT22;18502;43.574;1.276;2022-12-18T13:59:12;14.00;81.40
31979;DHT22;18502;43.574;1.276;2022-12-18T14:01:54;15.00;78.20
31979;DHT22;18502;43.574;1.276;2022-12-18T14:04:32;14.80;79.40
31979;DHT22;18502;43.574;1.276;2022-12-18T14:07:05;14.00;80.80
31979;DHT22;18502;43.574;1.276;2022-12-18T14:09:56;13.80;82.20
31979;DHT22;18502;43.574;1.276;2022-12-18T14:12:24;14.80;79.80
31979;DHT22;18502;43.574;1.276;2022-12-18T14:18:12;15.70;76.50
31979;DHT22;18502;43.574;1.276;2022-12-18T14:20:46;15.40;77.30
31979;DHT22;18502;43.574;1.276;2022-12-18T14:25:57;16.00;75.50
31979;DHT22;18502;43.574;1.276;2022-12-18T14:28:23;15.40;75.40
31979;DHT22;18502;43.574;1.276;2022-12-18T14:30:49;15.50;75.30
31979;DHT22;18502;43.574;1.276;2022-12-18T14:33:26;15.70;74.90
31979;DHT22;18502;43.574;1.276;2022-12-18T14:36:03;15.40;76.10
31979;DHT22;18502;43.574;1.276;2022-12-18T14:38:37;15.00;77.40
31979;DHT22;18502;43.574;1.276;2022-12-18T14:41:09;15.60;75.70
31979;DHT22;18502;43.574;1.276;2022-12-18T14:43:37;15.50;76.90
31979;DHT22;18502;43.574;1.276;2022-12-18T14:46:05;15.30;76.90
31979;DHT22;18502;43.574;1.276;2022-12-18T14:51:00;15.40;75.60
31979;DHT22;18502;43.574;1.276;2022-12-18T14:53:34;15.00;76.50
31979;DHT22;18502;43.574;1.276;2022-12-18T14:56:02;14.50;78.30
31979;DHT22;18502;43.574;1.276;2022-12-18T14:58:28;14.80;78.40
31979;DHT22;18502;43.574;1.276;2022-12-18T15:00:54;15.40;77.30
31979;DHT22;18502;43.574;1.276;2022-12-18T15:03:21;15.00;77.70
31979;DHT22;18502;43.574;1.276;2022-12-18T15:05:47;14.80;78.70
31979;DHT22;18502;43.574;1.276;2022-12-18T15:08:31;14.40;80.50
31979;DHT22;18502;43.574;1.276;2022-12-18T15:10:59;14.50;79.80
31979;DHT22;18502;43.574;1.276;2022-12-18T15:13:25;14.70;79.70
31979;DHT22;18502;43.574;1.276;2022-12-18T15:15:52;15.00;79.50
31979;DHT22;18502;43.574;1.276;2022-12-18T15:18:29;13.60;81.80
31979;DHT22;18502;43.574;1.276;2022-12-18T15:20:58;14.10;82.40
31979;DHT22;18502;43.574;1.276;2022-12-18T15:26:06;13.90;83.10
31979;DHT22;18502;43.574;1.276;2022-12-18T15:36:18;12.90;87.80
31979;DHT22;18502;43.574;1.276;2022-12-18T15:38:51;12.70;88.30
31979;DHT22;18502;43.574;1.276;2022-12-18T15:41:20;12.20;90.20
31979;DHT22;18502;43.574;1.276;2022-12-18T15:43:48;12.10;90.60
31979;DHT22;18502;43.574;1.276;2022-12-18T15:46:16;11.90;91.40
31979;DHT22;18502;43.574;1.276;2022-12-18T15:48:50;11.60;92.30
31979;DHT22;18502;43.574;1.276;2022-12-18T15:51:23;11.40;92.90
31979;DHT22;18502;43.574;1.276;2022-12-18T15:53:55;11.10;93.90
31979;DHT22;18502;43.574;1.276;2022-12-18T15:56:21;11.00;94.60
31979;DHT22;18502;43.574;1.276;2022-12-18T15:59:17;11.00;95.00
31979;DHT22;18502;43.574;1.276;2022-12-18T16:01:46;10.80;96.00
31979;DHT22;18502;43.574;1.276;2022-12-18T16:04:14;10.70;96.70
31979;DHT22;18502;43.574;1.276;2022-12-18T16:06:40;10.60;97.30
31979;DHT22;18502;43.574;1.276;2022-12-18T16:09:07;10.50;97.80
31979;DHT22;18502;43.574;1.276;2022-12-18T16:11:34;10.40;98.60
31979;DHT22;18502;43.574;1.276;2022-12-18T16:16:30;10.30;99.90
31979;DHT22;18502;43.574;1.276;2022-12-18T16:18:56;10.20;99.90
31979;DHT22;18502;43.574;1.276;2022-12-18T16:21:21;10.10;99.90
31979;DHT22;18502;43.574;1.276;2022-12-18T16:23:47;10.10;99.90
31979;DHT22;18502;43.574;1.276;2022-12-18T16:26:13;10.00;99.90
31979;DHT22;18502;43.574;1.276;2022-12-18T16:28:38;10.00;99.90
31979;DHT22;18502;43.574;1.276;2022-12-18T16:31:04;10.00;99.90
31979;DHT22;18502;43.574;1.276;2022-12-18T16:33:30;9.90;99.90
31979;DHT22;18502;43.574;1.276;2022-12-18T16:35:56;9.80;99.90
31979;DHT22;18502;43.574;1.276;2022-12-18T16:38:21;9.80;99.90
31979;DHT22;18502;43.574;1.276;2022-12-18T16:40:47;9.70;99.90
31979;DHT22;18502;43.574;1.276;2022-12-18T16:43:31;9.70;99.90
31979;DHT22;18502;43.574;1.276;2022-12-18T16:45:59;9.80;99.90
31979;DHT22;18502;43.574;1.276;2022-12-18T16:48:24;9.70;99.90
31979;DHT22;18502;43.574;1.276;2022-12-18T16:50:51;9.80;99.90
31979;DHT22;18502;43.574;1.276;2022-12-18T16:53:24;9.80;99.90
31979;DHT22;18502;43.574;1.276;2022-12-18T16:55:57;9.80;99.90
31979;DHT22;18502;43.574;1.276;2022-12-18T16:58:23;9.90;99.90
31979;DHT22;18502;43.574;1.276;2022-12-18T17:00:48;9.80;99.90
31979;DHT22;18502;43.574;1.276;2022-12-18T17:03:14;9.70;99.90
31979;DHT22;18502;43.574;1.276;2022-12-18T17:05:40;9.70;99.90
31979;DHT22;18502;43.574;1.276;2022-12-18T17:08:05;9.70;99.90
31979;DHT22;18502;43.574;1.276;2022-12-18T17:10:33;9.80;99.90
31979;DHT22;18502;43.574;1.276;2022-12-18T17:12:59;10.00;99.90
31979;DHT22;18502;43.574;1.276;2022-12-18T17:15:25;10.00;99.90
31979;DHT22;18502;43.574;1.276;2022-12-18T17:17:51;10.00;99.90
31979;DHT22;18502;43.574;1.276;2022-12-18T17:20:17;10.10;99.90
31979;DHT22;18502;43.574;1.276;2022-12-18T17:22:42;10.00;99.90
31979;DHT22;18502;43.574;1.276;2022-12-18T17:25:08;10.00;99.90
31979;DHT22;18502;43.574;1.276;2022-12-18T17:27:34;10.00;99.90
31979;DHT22;18502;43.574;1.276;2022-12-18T17:30:00;10.20;99.90
31979;DHT22;18502;43.574;1.276;2022-12-18T17:32:25;10.30;99.90
31979;DHT22;18502;43.574;1.276;2022-12-18T17:34:52;10.30;99.90
31979;DHT22;18502;43.574;1.276;2022-12-18T17:37:17;10.30;99.90
31979;DHT22;18502;43.574;1.276;2022-12-18T17:39:43;10.40;99.90
31979;DHT22;18502;43.574;1.276;2022-12-18T17:42:09;10.50;99.90
31979;DHT22;18502;43.574;1.276;2022-12-18T17:44:35;10.50;99.90
31979;DHT22;18502;43.574;1.276;2022-12-18T17:47:01;10.60;99.90
31979;DHT22;18502;43.574;1.276;2022-12-18T17:49:27;10.70;99.90
31979;DHT22;18502;43.574;1.276;2022-12-18T17:51:52;10.70;99.90
31979;DHT22;18502;43.574;1.276;2022-12-18T17:54:18;10.70;99.90
31979;DHT22;18502;43.574;1.276;2022-12-18T17:56:44;10.80;99.90
31979;DHT22;18502;43.574;1.276;2022-12-18T17:59:10;10.80;99.90
31979;DHT22;18502;43.574;1.276;2022-12-18T18:01:36;10.80;99.90
31979;DHT22;18502;43.574;1.276;2022-12-18T18:04:03;10.80;99.90
31979;DHT22;18502;43.574;1.276;2022-12-18T18:06:28;10.90;99.90
31979;DHT22;18502;43.574;1.276;2022-12-18T18:08:54;10.90;99.90
31979;DHT22;18502;43.574;1.276;2022-12-18T18:11:22;10.90;99.90
31979;DHT22;18502;43.574;1.276;2022-12-18T18:14:13;10.90;99.90
31979;DHT22;18502;43.574;1.276;2022-12-18T18:16:44;10.90;99.90